Main page
METAR-TAF:

METAR-TAF

Airports :

Bournemouth Airport

Bournemouth, England

latitude: 50-47N, longitude: 001-50W, elevation: 11 m

Current weather observation

The report was made 15 minutes ago, at 08:50 UTC
Wind 6 kt from the South, varying between East and Southwest
Temperature 17°C
Humidity 82%
Pressure 1027 hPa
Visibility 10 km or more
Few clouds at a height of 1800 ft

METAR: EGHH 210850Z 18006KT 100V230 9999 FEW018 17/14 Q1027

Time: 10:05 (09:05 UTC)

Forecast

The report was made 1 hour and 3 minutes ago, at 08:02 UTC
Forecast valid from 21 at 09 UTC to 21 at 18 UTC
Wind 2 kt from variable directions
Visibility 10 km or more
Few clouds at a height of 2500 ft
Becoming
from 21 at 09 UTC to 21 at 12 UTC
Wind 10 kt from the South

TAF: EGHH 210802Z 2109/2118 VRB02KT 9999 FEW025 BECMG 2109/2112 19010KT

Weather observations and forecasts of more than 4000 airports (METAR and TAF reports).

The available stations are represented by yellow and red dots on the map.

Hover mouse over dot to see the name of the station.

Then click to see weather observations and forecasts.

To change the map : click on the green buttons with a black cross to zoom in, on the green button with a dash to zoom out, or on the green arrows for adjacent maps.


METAR-TAF: